createdAt,value
2019-06-08T00:00:23.414Z,2.27
2019-06-08T00:02:55.301Z,2.25
2019-06-08T00:05:27.170Z,2.15
2019-06-08T00:07:59.082Z,2.42
2019-06-08T00:10:31.131Z,2.27
2019-06-08T00:13:03.028Z,2.12
2019-06-08T00:15:34.844Z,2.25
2019-06-08T00:18:06.860Z,2.47
2019-06-08T00:20:38.718Z,2.12
2019-06-08T00:23:12.121Z,2.65
2019-06-08T00:25:43.966Z,2.30
2019-06-08T00:28:16.146Z,2.10
2019-06-08T00:30:48.090Z,2.20
2019-06-08T00:33:20.538Z,2.10
2019-06-08T00:35:52.510Z,2.50
2019-06-08T00:38:25.158Z,2.62
2019-06-08T00:40:57.155Z,2.10
2019-06-08T00:43:29.038Z,2.42
2019-06-08T00:46:01.348Z,2.72
2019-06-08T00:48:33.226Z,2.70
2019-06-08T00:51:05.114Z,2.47
2019-06-08T00:53:36.968Z,3.15
2019-06-08T00:56:08.833Z,2.83
2019-06-08T00:58:40.676Z,3.40
2019-06-08T01:01:12.583Z,3.50
2019-06-08T01:03:44.561Z,3.00
2019-06-08T01:06:16.527Z,2.92
2019-06-08T01:08:48.386Z,2.70
2019-06-08T01:11:20.919Z,2.90
2019-06-08T01:13:52.967Z,3.10
2019-06-08T01:16:25.066Z,2.55
2019-06-08T01:18:57.176Z,2.80
2019-06-08T01:21:29.978Z,2.92
2019-06-08T01:24:01.949Z,2.62
2019-06-08T01:26:34.972Z,2.90
2019-06-08T01:29:06.754Z,2.70
2019-06-08T01:31:38.633Z,2.80
2019-06-08T01:34:10.708Z,2.67
2019-06-08T01:36:42.708Z,2.67
2019-06-08T01:39:14.577Z,2.70
2019-06-08T01:41:46.467Z,2.50
2019-06-08T01:44:18.370Z,2.60
2019-06-08T01:46:50.227Z,2.80
2019-06-08T01:49:22.063Z,3.75
2019-06-08T01:51:54.990Z,5.85
2019-06-08T01:54:29.766Z,6.08
2019-06-08T01:57:01.489Z,6.53
2019-06-08T01:59:34.778Z,7.10
2019-06-08T02:02:06.838Z,6.50
2019-06-08T02:04:38.788Z,7.12
2019-06-08T02:07:10.740Z,6.83
2019-06-08T02:09:42.694Z,6.50
2019-06-08T02:12:14.645Z,6.22
2019-06-08T02:14:46.486Z,6.75
2019-06-08T02:17:18.438Z,6.87
2019-06-08T02:19:50.426Z,6.28
2019-06-08T02:22:22.375Z,5.17
2019-06-08T02:24:54.359Z,5.40
2019-06-08T02:27:27.233Z,5.70
2019-06-08T02:29:59.559Z,4.87
2019-06-08T02:32:33.041Z,5.12
2019-06-08T02:35:06.352Z,4.50
2019-06-08T02:37:39.758Z,3.90
2019-06-08T02:40:13.652Z,3.87
2019-06-08T02:42:45.595Z,3.72
2019-06-08T02:45:18.584Z,3.65
2019-06-08T02:47:50.551Z,3.85
2019-06-08T02:50:53.541Z,3.98
2019-06-08T02:53:29.162Z,3.87
2019-06-08T02:56:00.786Z,3.60
2019-06-08T02:58:36.039Z,3.67
2019-06-08T03:01:08.113Z,3.60
2019-06-08T03:03:41.117Z,3.52
2019-06-08T03:06:14.440Z,3.27
2019-06-08T03:08:47.855Z,3.52
2019-06-08T03:11:21.058Z,3.80
2019-06-08T03:13:56.916Z,3.70
2019-06-08T03:16:28.769Z,3.70
2019-06-08T03:19:09.790Z,3.62
2019-06-08T03:21:36.003Z,3.45
2019-06-08T03:24:07.696Z,4.12
2019-06-08T03:26:41.396Z,3.62
2019-06-08T03:29:13.088Z,3.70
2019-06-08T03:31:54.358Z,3.77
2019-06-08T03:34:20.186Z,3.70
2019-06-08T03:36:56.642Z,3.70
2019-06-08T03:39:26.856Z,4.17
2019-06-08T03:41:58.718Z,3.83
2019-06-08T03:44:30.601Z,3.65
2019-06-08T03:47:02.454Z,3.85
2019-06-08T03:49:44.887Z,4.00
2019-06-08T03:52:07.885Z,3.37
2019-06-08T03:54:41.089Z,3.33
2019-06-08T03:57:13.195Z,3.45
2019-06-08T03:59:46.194Z,3.50
2019-06-08T04:02:18.586Z,3.42
2019-06-08T04:04:50.713Z,3.75
2019-06-08T04:07:22.602Z,4.50
2019-06-08T04:09:54.479Z,3.40
2019-06-08T04:12:26.349Z,3.27
2019-06-08T04:14:58.297Z,3.67
2019-06-08T04:17:30.175Z,3.80
2019-06-08T04:20:11.129Z,3.80
2019-06-08T04:22:40.387Z,3.42
2019-06-08T04:25:12.274Z,3.40
2019-06-08T04:27:44.778Z,3.00
2019-06-08T04:30:17.284Z,3.00
2019-06-08T04:32:49.705Z,3.20
2019-06-08T04:35:21.847Z,3.35
2019-06-08T04:37:53.677Z,3.45
2019-06-08T04:40:25.546Z,3.67
2019-06-08T04:42:57.411Z,3.37
2019-06-08T04:45:29.329Z,2.90
2019-06-08T04:48:01.195Z,3.80
2019-06-08T04:50:33.203Z,3.98
2019-06-08T04:53:05.044Z,3.67
2019-06-08T04:55:38.623Z,3.90
2019-06-08T04:58:10.406Z,3.70
2019-06-08T05:00:43.948Z,3.60
2019-06-08T05:03:15.798Z,3.98
2019-06-08T05:05:49.883Z,3.75
2019-06-08T05:08:21.321Z,3.87
2019-06-08T05:10:53.274Z,3.75
2019-06-08T05:13:25.108Z,4.37
2019-06-08T05:15:57.075Z,7.62
2019-06-08T05:18:28.893Z,4.53
2019-06-08T05:21:00.913Z,4.15
2019-06-08T05:23:32.867Z,3.92
2019-06-08T05:26:04.737Z,3.83
2019-06-08T05:28:36.617Z,4.33
2019-06-08T05:31:08.512Z,4.08
2019-06-08T05:33:41.317Z,4.45
2019-06-08T05:36:13.409Z,3.47
2019-06-08T05:38:45.697Z,3.98
2019-06-08T05:41:17.826Z,4.35
2019-06-08T05:43:50.089Z,4.10
2019-06-08T05:46:22.097Z,4.10
2019-06-08T05:48:53.967Z,3.80
2019-06-08T05:51:26.991Z,4.17
2019-06-08T05:53:58.831Z,4.00
2019-06-08T05:56:30.646Z,4.20
2019-06-08T05:59:02.488Z,3.87
2019-06-08T06:01:34.467Z,3.58
2019-06-08T06:04:06.331Z,3.50
2019-06-08T06:06:38.262Z,3.25
2019-06-08T06:09:10.097Z,3.15
2019-06-08T06:11:42.846Z,2.98
2019-06-08T06:14:15.919Z,2.58
2019-06-08T06:16:49.028Z,3.12
2019-06-08T06:19:21.108Z,3.05
2019-06-08T06:21:53.059Z,2.98
2019-06-08T06:24:24.954Z,3.10
2019-06-08T06:26:56.844Z,2.80
2019-06-08T06:29:28.766Z,2.90
2019-06-08T06:32:00.705Z,2.45
2019-06-08T06:34:32.575Z,2.22
2019-06-08T06:37:05.087Z,2.25
2019-06-08T06:39:36.980Z,2.17
2019-06-08T06:42:08.899Z,1.90
2019-06-08T06:44:42.097Z,2.40
2019-06-08T06:47:14.239Z,1.80
2019-06-08T06:49:46.459Z,2.42
2019-06-08T06:52:18.681Z,2.35
2019-06-08T06:54:51.220Z,2.92
2019-06-08T06:57:24.506Z,2.03
2019-06-08T06:59:56.423Z,2.70
2019-06-08T07:02:28.320Z,2.42
2019-06-08T07:05:00.214Z,1.80
2019-06-08T07:07:32.196Z,2.33
2019-06-08T07:10:06.094Z,2.25
2019-06-08T07:12:37.939Z,1.98
2019-06-08T07:15:09.904Z,2.17
2019-06-08T07:17:41.788Z,2.20
2019-06-08T07:20:13.831Z,2.58
2019-06-08T07:22:46.069Z,2.20
2019-06-08T07:25:18.043Z,2.72
2019-06-08T07:27:50.527Z,2.60
2019-06-08T07:30:22.631Z,2.67
2019-06-08T07:32:55.090Z,2.63
2019-06-08T07:35:27.181Z,2.45
2019-06-08T07:37:59.775Z,2.45
2019-06-08T07:40:31.993Z,2.22
2019-06-08T07:43:04.193Z,1.90
2019-06-08T07:45:37.499Z,1.77
2019-06-08T07:48:09.505Z,1.80
2019-06-08T07:50:41.364Z,2.30
2019-06-08T07:53:13.324Z,1.77
2019-06-08T07:55:45.497Z,2.20
2019-06-08T07:58:17.614Z,2.10
2019-06-08T08:00:52.574Z,1.98
2019-06-08T08:03:24.083Z,2.00
2019-06-08T08:05:56.725Z,2.20
2019-06-08T08:08:28.861Z,1.80
2019-06-08T08:11:00.814Z,1.60
2019-06-08T08:13:32.807Z,1.92
2019-06-08T08:16:04.639Z,1.77
2019-06-08T08:18:36.598Z,1.75
2019-06-08T08:21:21.271Z,1.77
2019-06-08T08:23:42.008Z,1.60
2019-06-08T08:26:13.849Z,1.70
2019-06-08T08:28:48.642Z,1.87
2019-06-08T08:31:19.297Z,1.82
2019-06-08T08:33:52.528Z,1.27
2019-06-08T08:36:25.053Z,1.50
2019-06-08T08:39:00.466Z,1.40
2019-06-08T08:41:30.516Z,1.60
2019-06-08T08:44:04.738Z,1.50
2019-06-08T08:46:38.483Z,1.50
2019-06-08T08:49:12.956Z,1.35
2019-06-08T08:51:43.366Z,1.53
2019-06-08T08:54:18.134Z,1.50
2019-06-08T08:56:52.293Z,1.47
2019-06-08T08:59:22.477Z,1.30
2019-06-08T09:01:54.761Z,1.52
2019-06-08T09:04:27.751Z,1.83
2019-06-08T09:07:05.609Z,1.77
2019-06-08T09:09:34.262Z,1.80
2019-06-08T09:12:10.371Z,1.60
2019-06-08T09:14:42.418Z,1.90
2019-06-08T09:17:14.378Z,1.90
2019-06-08T09:19:48.097Z,1.47
2019-06-08T09:22:19.844Z,1.57
2019-06-08T09:24:53.103Z,1.82
2019-06-08T09:27:25.294Z,1.60
2019-06-08T09:29:59.668Z,1.60
2019-06-08T09:32:30.806Z,1.95
2019-06-08T09:35:04.746Z,1.80
2019-06-08T09:37:37.583Z,1.45
2019-06-08T09:40:10.623Z,1.80
2019-06-08T09:42:42.491Z,1.50
2019-06-08T09:45:15.121Z,2.08
2019-06-08T09:47:47.802Z,1.77
2019-06-08T09:50:22.205Z,1.87
2019-06-08T09:53:13.895Z,1.75
2019-06-08T09:55:28.826Z,1.70
2019-06-08T09:58:05.184Z,2.00
2019-06-08T10:00:37.900Z,1.60
2019-06-08T10:03:09.836Z,2.12
2019-06-08T10:05:41.884Z,2.00
2019-06-08T10:08:13.811Z,1.70
2019-06-08T10:10:48.243Z,1.70
2019-06-08T10:13:20.710Z,2.37
2019-06-08T10:15:57.370Z,1.85
2019-06-08T10:18:29.071Z,1.80
2019-06-08T10:21:02.890Z,1.80
2019-06-08T10:23:35.004Z,2.08
2019-06-08T10:26:07.784Z,1.95
2019-06-08T10:28:41.308Z,1.90
2019-06-08T10:31:13.396Z,1.98
2019-06-08T10:33:48.028Z,2.22
2019-06-08T10:36:19.001Z,2.40
2019-06-08T10:38:50.851Z,2.20
2019-06-08T10:41:22.990Z,2.33
2019-06-08T10:43:57.191Z,2.17
2019-06-08T10:46:34.227Z,1.87
2019-06-08T10:49:09.150Z,2.08
2019-06-08T10:51:48.908Z,1.90
2019-06-08T10:54:21.264Z,2.00
2019-06-08T10:56:53.180Z,2.03
2019-06-08T10:59:26.033Z,1.70
2019-06-08T11:02:00.972Z,1.95
2019-06-08T11:04:34.483Z,2.07
2019-06-08T11:07:12.568Z,2.15
2019-06-08T11:09:41.959Z,1.80
2019-06-08T11:12:28.171Z,2.00
2019-06-08T11:15:11.704Z,1.85
2019-06-08T11:17:42.981Z,2.08
2019-06-08T11:20:17.995Z,2.22
2019-06-08T11:22:50.372Z,1.72
2019-06-08T11:25:22.359Z,1.40
2019-06-08T11:27:54.388Z,1.50
2019-06-08T11:30:28.080Z,1.60
2019-06-08T11:32:59.991Z,1.67
2019-06-08T11:35:31.920Z,1.40
2019-06-08T11:38:04.110Z,1.42
2019-06-08T11:40:39.248Z,1.30
2019-06-08T11:43:15.036Z,1.42
2019-06-08T11:45:48.085Z,1.47
2019-06-08T11:48:20.436Z,1.57
2019-06-08T11:50:52.367Z,1.60
2019-06-08T11:53:25.528Z,1.72
2019-06-08T11:55:58.588Z,1.55
2019-06-08T11:58:31.601Z,1.65
2019-06-08T12:01:18.402Z,1.50
2019-06-08T12:03:49.435Z,1.47
2019-06-08T12:06:23.839Z,2.00
2019-06-08T12:08:57.382Z,1.98
2019-06-08T12:11:29.267Z,1.85
2019-06-08T12:14:01.263Z,1.80
2019-06-08T12:16:33.276Z,2.07
2019-06-08T12:19:11.967Z,2.10
2019-06-08T12:21:41.477Z,2.20
2019-06-08T12:24:14.394Z,2.27
2019-06-08T12:26:48.394Z,1.95
2019-06-08T12:29:21.083Z,1.82
2019-06-08T12:31:53.263Z,1.77
2019-06-08T12:34:25.378Z,1.90
2019-06-08T12:36:58.334Z,1.60
2019-06-08T12:39:30.454Z,1.60
2019-06-08T12:42:20.820Z,1.90
2019-06-08T12:45:11.151Z,1.70
2019-06-08T12:47:43.645Z,2.00
2019-06-08T12:50:16.594Z,2.45
2019-06-08T12:52:48.820Z,2.62
2019-06-08T12:55:25.077Z,2.10
2019-06-08T12:57:54.526Z,1.90
2019-06-08T13:00:28.066Z,2.08
2019-06-08T13:03:01.095Z,2.75
2019-06-08T13:05:33.008Z,2.00
2019-06-08T13:08:05.124Z,1.70
2019-06-08T13:10:38.226Z,1.45
2019-06-08T13:13:11.143Z,2.58
2019-06-08T13:15:47.950Z,2.20
2019-06-08T13:18:20.185Z,2.10
2019-06-08T13:20:53.811Z,1.95
2019-06-08T13:23:28.322Z,2.30
2019-06-08T13:26:00.294Z,1.60
2019-06-08T13:28:33.773Z,1.85
2019-06-08T13:31:08.446Z,1.70
2019-06-08T13:33:39.282Z,1.80
2019-06-08T13:36:12.116Z,1.73
2019-06-08T13:38:44.467Z,1.50
2019-06-08T13:41:19.899Z,1.37
2019-06-08T13:43:50.292Z,1.50
2019-06-08T13:46:23.615Z,1.37
2019-06-08T13:48:55.795Z,1.67
2019-06-08T13:51:28.251Z,1.50
2019-06-08T13:54:00.210Z,1.20
2019-06-08T13:56:32.253Z,1.70
2019-06-08T13:59:07.905Z,1.60
2019-06-08T14:01:37.970Z,1.27
2019-06-08T14:04:09.940Z,1.60
2019-06-08T14:06:41.975Z,1.45
2019-06-08T14:09:14.318Z,1.65
2019-06-08T14:11:47.671Z,1.70
2019-06-08T14:14:21.222Z,1.50
2019-06-08T14:16:54.537Z,1.80
2019-06-08T14:19:29.049Z,1.80
2019-06-08T14:22:00.144Z,1.80
2019-06-08T14:24:34.681Z,1.75
2019-06-08T14:27:08.060Z,1.70
2019-06-08T14:29:39.407Z,2.17
2019-06-08T14:32:11.356Z,2.22
2019-06-08T14:34:43.215Z,2.33
2019-06-08T14:37:15.453Z,2.37
2019-06-08T14:39:48.750Z,2.12
2019-06-08T14:42:26.003Z,2.20
2019-06-08T14:44:57.738Z,2.10
2019-06-08T14:47:30.394Z,2.00
2019-06-08T14:50:02.555Z,2.33
2019-06-08T14:52:34.489Z,2.30
2019-06-08T14:55:08.232Z,2.20
2019-06-08T14:57:40.825Z,2.10
2019-06-08T15:00:15.451Z,2.00
2019-06-08T15:02:49.863Z,2.15
2019-06-08T15:05:23.268Z,2.05
2019-06-08T15:07:58.116Z,2.20
2019-06-08T15:10:31.151Z,2.27
2019-06-08T15:13:02.796Z,2.50
2019-06-08T15:15:34.729Z,2.10
2019-06-08T15:18:11.136Z,2.35
2019-06-08T15:20:42.268Z,2.80
2019-06-08T15:23:16.897Z,2.42
2019-06-08T15:25:47.979Z,2.60
2019-06-08T15:28:20.651Z,2.40
2019-06-08T15:30:52.588Z,3.22
2019-06-08T15:33:26.063Z,4.08
2019-06-08T15:35:58.379Z,3.55
2019-06-08T15:38:32.371Z,2.77
2019-06-08T15:41:03.794Z,2.87
2019-06-08T15:43:37.610Z,2.20
2019-06-08T15:46:10.654Z,2.60
2019-06-08T15:48:54.825Z,2.60
2019-06-08T15:51:33.813Z,2.40
2019-06-08T15:54:02.910Z,3.12
2019-06-08T15:56:45.558Z,3.00
2019-06-08T15:59:09.208Z,3.40
2019-06-08T16:01:41.371Z,3.58
2019-06-08T16:04:13.566Z,2.95
2019-06-08T16:06:45.557Z,3.83
2019-06-08T16:09:17.588Z,3.30
2019-06-08T16:11:49.493Z,3.40
2019-06-08T16:14:21.736Z,3.60
2019-06-08T16:16:53.811Z,3.75
2019-06-08T16:19:25.732Z,3.60
2019-06-08T16:21:59.505Z,3.52
2019-06-08T16:24:31.895Z,3.90
2019-06-08T16:27:03.849Z,3.95
2019-06-08T16:29:35.766Z,3.98
2019-06-08T16:32:07.929Z,3.62
2019-06-08T16:34:39.961Z,3.10
2019-06-08T16:37:12.552Z,3.20
2019-06-08T16:39:44.563Z,3.00
2019-06-08T16:42:16.945Z,3.72
2019-06-08T16:44:49.093Z,3.80
2019-06-08T16:47:21.957Z,2.70
2019-06-08T16:49:53.845Z,3.20
2019-06-08T16:52:25.841Z,3.22
2019-06-08T16:54:57.720Z,3.10
2019-06-08T16:57:30.952Z,3.02
2019-06-08T17:00:29.890Z,2.97
2019-06-08T17:02:39.375Z,3.30
2019-06-08T17:05:11.778Z,3.20
2019-06-08T17:07:43.668Z,3.85
2019-06-08T17:10:15.623Z,2.83
2019-06-08T17:12:47.486Z,2.55
2019-06-08T17:15:20.594Z,2.30
2019-06-08T17:17:52.406Z,2.63
2019-06-08T17:20:24.391Z,2.10
2019-06-08T17:22:56.493Z,2.20
2019-06-08T17:25:28.458Z,2.00
2019-06-08T17:28:00.771Z,1.87
2019-06-08T17:30:33.888Z,2.17
2019-06-08T17:33:06.392Z,2.50
2019-06-08T17:35:39.780Z,2.60
2019-06-08T17:38:12.051Z,4.15
2019-06-08T17:40:45.119Z,3.60
2019-06-08T17:43:17.762Z,2.95
2019-06-08T17:45:49.807Z,2.92
2019-06-08T17:48:21.732Z,2.65
2019-06-08T17:50:53.633Z,4.27
2019-06-08T17:53:25.547Z,3.77
2019-06-08T17:55:57.606Z,3.85
2019-06-08T17:58:29.513Z,6.05
2019-06-08T18:01:06.817Z,4.87
2019-06-08T18:03:41.440Z,3.40
2019-06-08T18:06:13.965Z,2.95
2019-06-08T18:08:48.053Z,2.80
2019-06-08T18:11:19.470Z,2.90
2019-06-08T18:13:51.410Z,2.50
2019-06-08T18:16:23.224Z,2.70
2019-06-08T18:18:57.581Z,2.05
2019-06-08T18:21:28.855Z,2.30
2019-06-08T18:24:03.425Z,2.08
2019-06-08T18:26:37.356Z,2.35
2019-06-08T18:29:09.963Z,2.10
2019-06-08T18:31:42.995Z,2.12
2019-06-08T18:34:17.781Z,1.82
2019-06-08T18:36:49.107Z,1.80
2019-06-08T18:39:20.926Z,1.75
2019-06-08T18:41:53.007Z,1.70
2019-06-08T18:44:24.977Z,1.87
2019-06-08T18:46:57.655Z,2.00
2019-06-08T18:49:29.951Z,1.75
2019-06-08T18:52:01.801Z,1.60
2019-06-08T18:54:33.696Z,1.65
2019-06-08T18:57:08.485Z,1.90
2019-06-08T18:59:46.052Z,1.80
2019-06-08T19:02:12.770Z,1.90
2019-06-08T19:04:45.634Z,1.60
2019-06-08T19:07:18.220Z,1.32
2019-06-08T19:09:50.165Z,1.62
2019-06-08T19:12:22.287Z,1.55
2019-06-08T19:14:54.288Z,1.47
2019-06-08T19:17:28.279Z,1.60
2019-06-08T19:19:59.792Z,1.30
2019-06-08T19:22:31.702Z,1.60
2019-06-08T19:25:04.296Z,1.50
2019-06-08T19:27:40.729Z,1.40
2019-06-08T19:30:09.740Z,2.08
2019-06-08T19:32:42.968Z,2.25
2019-06-08T19:35:18.278Z,2.87
2019-06-08T19:37:53.821Z,3.27
2019-06-08T19:40:22.280Z,3.25
2019-06-08T19:42:58.066Z,2.97
2019-06-08T19:45:27.818Z,3.27
2019-06-08T19:47:59.730Z,3.80
2019-06-08T19:50:31.938Z,3.60
2019-06-08T19:53:03.800Z,3.40
2019-06-08T19:55:35.660Z,3.42
2019-06-08T19:58:08.900Z,3.33
2019-06-08T20:00:42.380Z,2.33
2019-06-08T20:03:17.639Z,2.30
2019-06-08T20:05:51.637Z,2.33
2019-06-08T20:08:22.298Z,2.42
2019-06-08T20:10:54.372Z,2.30
2019-06-08T20:13:26.229Z,2.22
2019-06-08T20:16:01.516Z,2.40
2019-06-08T20:18:31.702Z,2.55
2019-06-08T20:21:03.604Z,2.75
2019-06-08T20:23:35.501Z,2.17
2019-06-08T20:26:08.415Z,2.72
2019-06-08T20:28:41.987Z,2.10
2019-06-08T20:31:14.034Z,1.87
2019-06-08T20:33:45.919Z,2.27
2019-06-08T20:36:18.887Z,2.17
2019-06-08T20:38:50.971Z,2.60
2019-06-08T20:41:22.883Z,1.90
2019-06-08T20:43:54.831Z,2.42
2019-06-08T20:46:28.589Z,1.72
2019-06-08T20:49:01.317Z,2.35
2019-06-08T20:51:33.133Z,2.30
2019-06-08T20:54:05.015Z,2.10
2019-06-08T20:56:37.315Z,2.15
2019-06-08T20:59:09.492Z,2.30
2019-06-08T21:01:41.368Z,2.30
2019-06-08T21:04:13.244Z,2.10
2019-06-08T21:06:46.312Z,2.67
2019-06-08T21:09:18.784Z,2.12
2019-06-08T21:11:52.528Z,2.45
2019-06-08T21:14:24.192Z,2.40
2019-06-08T21:16:58.321Z,2.25
2019-06-08T21:19:29.556Z,2.25
2019-06-08T21:22:01.444Z,2.20
2019-06-08T21:24:33.357Z,2.13
2019-06-08T21:27:08.017Z,2.30
2019-06-08T21:29:47.718Z,2.45
2019-06-08T21:32:12.422Z,2.10
2019-06-08T21:34:44.366Z,2.42
2019-06-08T21:37:18.495Z,1.95
2019-06-08T21:39:55.328Z,2.30
2019-06-08T21:42:24.215Z,2.10
2019-06-08T21:44:59.920Z,2.20
2019-06-08T21:47:29.578Z,2.15
2019-06-08T21:50:01.441Z,1.90
2019-06-08T21:52:33.336Z,2.12
2019-06-08T21:55:07.355Z,2.40
2019-06-08T21:57:39.540Z,2.08
2019-06-08T22:00:34.727Z,1.98
2019-06-08T22:02:47.966Z,2.13
2019-06-08T22:05:20.234Z,2.40
2019-06-08T22:07:52.098Z,3.05
2019-06-08T22:10:24.028Z,2.50
2019-06-08T22:12:59.599Z,2.60
2019-06-08T22:15:29.613Z,2.90
2019-06-08T22:18:01.539Z,2.60
2019-06-08T22:20:33.453Z,2.17
2019-06-08T22:23:07.345Z,2.40
2019-06-08T22:25:39.455Z,2.30
2019-06-08T22:28:11.365Z,2.55
2019-06-08T22:30:43.955Z,2.52
2019-06-08T22:33:17.581Z,2.02
2019-06-08T22:35:49.305Z,1.80
2019-06-08T22:38:21.183Z,1.70
2019-06-08T22:40:53.045Z,2.37
2019-06-08T22:43:25.041Z,2.10
2019-06-08T22:46:00.173Z,2.12
2019-06-08T22:48:31.142Z,2.27
2019-06-08T22:51:04.243Z,1.90
2019-06-08T22:53:38.361Z,2.72
2019-06-08T22:56:10.510Z,2.85
2019-06-08T22:58:42.413Z,3.03
2019-06-08T23:01:14.465Z,3.47
2019-06-08T23:03:47.593Z,3.08
2019-06-08T23:06:19.771Z,3.02
2019-06-08T23:08:51.702Z,2.60
2019-06-08T23:11:23.586Z,3.00
2019-06-08T23:13:58.983Z,2.60
2019-06-08T23:16:29.103Z,2.77
2019-06-08T23:19:01.740Z,2.60
2019-06-08T23:21:33.737Z,3.15
2019-06-08T23:24:08.522Z,3.47
2019-06-08T23:26:40.267Z,3.98
2019-06-08T23:29:12.175Z,4.55
2019-06-08T23:31:44.026Z,4.25
2019-06-08T23:34:18.172Z,4.15
2019-06-08T23:36:58.694Z,8.90
2019-06-08T23:39:22.979Z,11.10
2019-06-08T23:41:54.859Z,10.25
2019-06-08T23:44:28.286Z,7.78
2019-06-08T23:47:01.575Z,6.95
2019-06-08T23:49:35.016Z,7.22
2019-06-08T23:52:10.402Z,6.67
2019-06-08T23:54:40.416Z,6.12
2019-06-08T23:57:12.286Z,5.53
2019-06-08T23:59:44.144Z,5.30
